Time;durP1;ratioP1;P1;durP2;ratioP2;P2;SDS_P1;SDS_P2;PMS_P1;PMS_P2;Temp;Humidity;BMP_temperature;BMP_pressure;BME280_temperature;BME280_humidity;BME280_pressure;Samples;Min_cycle;Max_cycle;Signal;HPM_P1;HPM_P2
2024/01/02 00:00:15;;;;;;;46.47;30.38;;;;;;;5.50;100.00;99869.16;5069900;28;20555;-78
2024/01/02 00:02:41;;;;;;;47.50;28.35;;;;;;;5.54;100.00;99874.91;5050712;28;20028;-77
2024/01/02 00:05:07;;;;;;;39.92;26.88;;;;;;;5.51;100.00;99864.69;5051505;28;20086;-77
2024/01/02 00:07:32;;;;;;;43.58;25.65;;;;;;;5.71;100.00;99889.47;5051131;28;20078;-78
2024/01/02 00:09:58;;;;;;;43.75;27.52;;;;;;;5.44;100.00;99856.69;5069033;28;20037;-78
2024/01/02 00:12:23;;;;;;;39.65;25.25;;;;;;;5.06;100.00;99893.13;5069217;28;20048;-78
2024/01/02 00:14:50;;;;;;;45.70;26.75;;;;;;;4.75;100.00;99873.88;5069139;28;20024;-77
2024/01/02 00:17:15;;;;;;;40.42;24.52;;;;;;;4.48;100.00;99861.38;5068739;28;20036;-78
2024/01/02 00:19:41;;;;;;;40.95;24.25;;;;;;;4.72;100.00;99882.19;5068463;28;20025;-78
2024/01/02 00:22:06;;;;;;;38.80;24.88;;;;;;;4.73;100.00;99856.59;5068505;28;20033;-78
2024/01/02 00:24:33;;;;;;;39.70;26.10;;;;;;;5.15;100.00;99871.69;5068787;28;20020;-79
2024/01/02 00:26:58;;;;;;;43.30;25.38;;;;;;;5.09;100.00;99848.66;5068358;28;20120;-79
2024/01/02 00:29:23;;;;;;;44.05;26.75;;;;;;;5.19;100.00;99814.78;5068540;28;20108;-78
2024/01/02 00:31:49;;;;;;;45.45;26.48;;;;;;;5.26;100.00;99861.63;5068810;28;20404;-78
2024/01/02 00:34:15;;;;;;;43.40;25.30;;;;;;;4.96;100.00;99872.28;5068675;28;20021;-78
2024/01/02 00:36:41;;;;;;;45.33;26.33;;;;;;;4.99;100.00;99850.78;5068690;28;20107;-77
2024/01/02 00:39:06;;;;;;;47.33;28.85;;;;;;;5.07;100.00;99849.81;5049180;28;20039;-77
2024/01/02 00:41:32;;;;;;;47.03;27.30;;;;;;;5.19;100.00;99861.53;5049593;28;20099;-78
2024/01/02 00:43:58;;;;;;;42.58;27.23;;;;;;;5.31;100.00;99838.06;5051391;28;20426;-78
2024/01/02 00:46:23;;;;;;;48.67;29.58;;;;;;;5.45;100.00;99855.69;5069447;28;20043;-76
2024/01/02 00:48:49;;;;;;;49.13;30.48;;;;;;;5.43;100.00;99844.47;5050562;28;20482;-77
2024/01/02 00:51:14;;;;;;;44.72;29.00;;;;;;;5.09;100.00;99845.16;5068077;28;20524;-77
2024/01/02 00:53:40;;;;;;;46.75;28.80;;;;;;;5.14;100.00;99854.19;5068834;28;20091;-78
2024/01/02 00:56:05;;;;;;;48.92;30.02;;;;;;;5.36;100.00;99846.25;5067634;28;20378;-78
2024/01/02 00:58:31;;;;;;;50.13;30.35;;;;;;;5.49;100.00;99856.13;5050920;28;20025;-76
2024/01/02 01:00:56;;;;;;;44.33;29.00;;;;;;;5.51;100.00;99838.22;5050847;28;20032;-77
2024/01/02 01:03:22;;;;;;;51.78;31.35;;;;;;;5.34;100.00;99827.94;5068440;28;20025;-77
2024/01/02 01:05:47;;;;;;;46.40;28.80;;;;;;;5.32;100.00;99818.56;5050593;28;20029;-78
2024/01/02 01:08:12;;;;;;;48.80;28.63;;;;;;;5.34;100.00;99821.81;5068656;28;20035;-78
2024/01/02 01:10:38;;;;;;;47.53;28.77;;;;;;;5.28;100.00;99818.13;5050729;28;20078;-78
2024/01/02 01:13:03;;;;;;;47.40;29.83;;;;;;;5.29;100.00;99819.75;5068752;28;20080;-78
2024/01/02 01:15:28;;;;;;;48.63;28.63;;;;;;;5.09;100.00;99798.44;5068864;28;20404;-77
2024/01/02 01:17:54;;;;;;;48.28;28.90;;;;;;;5.32;100.00;99821.19;5068221;28;20515;-76
2024/01/02 01:20:19;;;;;;;47.83;30.00;;;;;;;5.21;100.00;99804.84;5050158;28;20047;-78
2024/01/02 01:22:45;;;;;;;50.53;30.67;;;;;;;5.09;100.00;99819.56;5068229;28;20409;-77
2024/01/02 01:25:11;;;;;;;46.45;28.90;;;;;;;5.15;100.00;99833.84;5067767;28;20085;-78
2024/01/02 01:27:36;;;;;;;51.92;29.58;;;;;;;4.95;100.00;99833.66;5067948;28;20028;-76
2024/01/02 01:30:02;;;;;;;47.75;29.25;;;;;;;5.17;100.00;99837.97;5050049;28;20032;-77
2024/01/02 01:32:30;;;;;;;47.20;28.63;;;;;;;4.88;100.00;99824.84;5068284;28;20039;-77
2024/01/02 01:34:55;;;;;;;46.30;27.98;;;;;;;4.76;100.00;99783.06;5068003;28;20048;-77
2024/01/02 01:37:21;;;;;;;45.55;27.83;;;;;;;4.96;100.00;99814.16;5065229;28;20068;-77
2024/01/02 01:39:46;;;;;;;44.78;28.20;;;;;;;5.15;100.00;99818.81;5049963;28;20025;-78
2024/01/02 01:42:11;;;;;;;45.95;28.63;;;;;;;5.23;100.00;99826.63;5068348;28;20032;-78
2024/01/02 01:44:37;;;;;;;43.53;28.25;;;;;;;5.06;100.00;99825.22;5068088;28;20035;-77
2024/01/02 01:47:04;;;;;;;42.83;28.27;;;;;;;5.09;100.00;99838.09;5050346;28;20032;-79
2024/01/02 01:49:30;;;;;;;53.63;32.63;;;;;;;4.85;100.00;99844.53;5068158;28;20016;-78
2024/01/02 01:51:57;;;;;;;42.60;26.58;;;;;;;4.59;100.00;99786.94;5068427;28;20112;-77
2024/01/02 01:54:23;;;;;;;47.72;27.80;;;;;;;4.89;100.00;99834.41;5050050;28;20028;-78
2024/01/02 01:56:50;;;;;;;47.08;27.77;;;;;;;4.83;100.00;99820.13;5068171;28;20025;-77
2024/01/02 01:59:15;;;;;;;45.70;27.75;;;;;;;4.74;100.00;99805.38;5067745;28;20055;-77
2024/01/02 02:01:43;;;;;;;49.88;30.40;;;;;;;4.06;100.00;99812.69;5067925;28;20060;-78
2024/01/02 02:04:09;;;;;;;54.47;30.33;;;;;;;4.08;100.00;99779.03;5068059;28;20652;-78
2024/01/02 02:06:34;;;;;;;74.93;38.28;;;;;;;4.23;100.00;99787.75;5067717;28;20059;-78
2024/01/02 02:09:00;;;;;;;64.85;36.25;;;;;;;4.23;100.00;99771.94;5067561;28;20048;-77
2024/01/02 02:11:26;;;;;;;66.50;34.40;;;;;;;4.46;100.00;99784.19;5067682;28;20025;-78
2024/01/02 02:13:52;;;;;;;51.38;31.23;;;;;;;4.49;100.00;99786.44;5068142;28;20039;-77
2024/01/02 02:16:18;;;;;;;50.00;31.40;;;;;;;4.54;100.00;99786.69;5067883;28;20052;-77
2024/01/02 02:18:43;;;;;;;49.88;30.40;;;;;;;4.60;100.00;99791.25;5067902;28;20056;-77
2024/01/02 02:21:09;;;;;;;47.72;28.92;;;;;;;4.47;100.00;99770.75;5067975;28;20086;-77
2024/01/02 02:23:34;;;;;;;46.78;28.58;;;;;;;4.67;100.00;99789.47;5067914;28;20071;-77
2024/01/02 02:25:59;;;;;;;43.53;27.55;;;;;;;4.63;100.00;99772.38;5067848;28;20029;-78
2024/01/02 02:28:25;;;;;;;45.78;27.85;;;;;;;4.69;100.00;99784.81;5067571;28;20090;-79
2024/01/02 02:30:51;;;;;;;44.22;28.00;;;;;;;4.39;100.00;99790.19;5067785;28;20032;-78
2024/01/02 02:33:16;;;;;;;47.22;29.10;;;;;;;4.39;100.00;99795.47;5067795;28;20044;-78
2024/01/02 02:35:41;;;;;;;47.17;28.45;;;;;;;4.17;100.00;99772.66;5067965;28;20025;-77
2024/01/02 02:38:07;;;;;;;52.00;32.03;;;;;;;3.94;100.00;99770.97;5069970;28;20037;-77
2024/01/02 02:40:32;;;;;;;57.13;32.90;;;;;;;4.23;100.00;99775.38;5071214;28;20098;-78
2024/01/02 02:42:58;;;;;;;54.22;30.40;;;;;;;4.76;100.00;99793.66;5071197;28;20083;-77
2024/01/02 02:45:23;;;;;;;53.28;30.52;;;;;;;4.59;100.00;99776.38;5070507;28;20177;-77
2024/01/02 02:47:49;;;;;;;57.95;32.83;;;;;;;4.58;100.00;99753.63;5071519;28;20055;-77
2024/01/02 02:50:14;;;;;;;50.35;32.03;;;;;;;4.76;100.00;99779.59;5070586;28;20060;-77
2024/01/02 02:52:39;;;;;;;48.40;30.80;;;;;;;4.43;100.00;99778.25;5053236;28;20040;-77
2024/01/02 02:55:06;;;;;;;79.15;37.15;;;;;;;4.41;100.00;99785.56;5071128;28;20119;-77
2024/01/02 02:57:31;;;;;;;62.08;34.63;;;;;;;3.96;100.00;99770.75;5070991;28;20032;-77
2024/01/02 02:59:56;;;;;;;63.45;37.58;;;;;;;4.33;100.00;99790.94;5070611;28;20042;-78
2024/01/02 03:02:22;;;;;;;65.45;37.92;;;;;;;4.61;100.00;99779.66;5071191;28;20494;-77
2024/01/02 03:04:47;;;;;;;63.45;36.40;;;;;;;4.50;100.00;99753.75;5070940;28;20036;-78
2024/01/02 03:07:12;;;;;;;67.97;37.45;;;;;;;4.42;100.00;99765.25;5069772;28;20115;-77
2024/01/02 03:09:43;;;;;;;66.28;37.90;;;;;;;4.13;100.00;99761.66;5070525;28;20463;-78
2024/01/02 03:12:09;;;;;;;64.95;40.83;;;;;;;4.26;100.00;99799.78;5054113;28;20110;-79
2024/01/02 03:14:34;;;;;;;56.15;35.05;;;;;;;3.76;100.00;99750.22;5071288;28;20032;-78
2024/01/02 03:17:00;;;;;;;55.30;31.70;;;;;;;4.35;100.00;99790.72;5070476;28;20067;-78
2024/01/02 03:19:25;;;;;;;59.15;34.42;;;;;;;4.55;100.00;99796.25;5063605;28;20032;-78
2024/01/02 03:21:51;;;;;;;61.88;34.75;;;;;;;4.47;100.00;99793.72;5070370;28;20040;-77
2024/01/02 03:24:16;;;;;;;99.65;58.38;;;;;;;4.41;100.00;99790.84;5070521;28;20029;-78
2024/01/02 03:26:42;;;;;;;88.70;50.05;;;;;;;4.68;100.00;99817.53;5070966;28;20032;-77
2024/01/02 03:29:07;;;;;;;80.00;47.65;;;;;;;4.82;100.00;99821.97;5070517;28;20020;-78
2024/01/02 03:31:32;;;;;;;68.05;39.85;;;;;;;4.42;100.00;99792.44;5070231;28;20039;-77
2024/01/02 03:33:58;;;;;;;58.47;33.22;;;;;;;4.19;100.00;99813.69;5070609;28;20497;-78
2024/01/02 03:36:23;;;;;;;56.92;32.85;;;;;;;4.25;100.00;99817.44;5052848;28;20039;-78
2024/01/02 03:38:50;;;;;;;48.70;28.73;;;;;;;4.12;100.00;99799.59;5070114;28;20107;-77
2024/01/02 03:41:16;;;;;;;47.25;28.63;;;;;;;4.48;100.00;99834.97;5051805;28;20036;-77
2024/01/02 03:43:42;;;;;;;46.53;28.50;;;;;;;4.67;100.00;99836.22;5070219;28;20029;-77
2024/01/02 03:46:08;;;;;;;45.97;29.23;;;;;;;4.59;100.00;99826.56;5068702;28;20028;-77
2024/01/02 03:48:34;;;;;;;48.15;29.05;;;;;;;4.60;100.00;99807.09;5069712;28;20405;-78
2024/01/02 03:51:02;;;;;;;51.17;29.02;;;;;;;4.81;100.00;99828.22;5053020;28;20036;-78
2024/01/02 03:53:28;;;;;;;52.35;31.77;;;;;;;4.64;100.00;99816.28;5070261;28;20032;-77
2024/01/02 03:55:54;;;;;;;52.80;30.73;;;;;;;4.23;100.00;99808.88;5070465;28;20036;-77
2024/01/02 03:58:20;;;;;;;47.00;28.83;;;;;;;4.05;100.00;99809.25;5070428;28;20091;-77
2024/01/02 04:00:45;;;;;;;49.55;29.98;;;;;;;3.69;100.00;99782.75;5069698;28;20024;-78
2024/01/02 04:03:11;;;;;;;44.13;27.33;;;;;;;3.63;100.00;99803.56;5051558;28;20029;-78
2024/01/02 04:05:36;;;;;;;46.65;29.08;;;;;;;3.91;100.00;99773.13;5052019;28;20115;-77
2024/01/02 04:08:02;;;;;;;78.63;48.90;;;;;;;4.39;100.00;99792.84;5051793;28;20025;-77
2024/01/02 04:10:27;;;;;;;53.70;33.05;;;;;;;4.53;100.00;99798.25;5051500;28;20036;-77
2024/01/02 04:12:52;;;;;;;58.33;35.63;;;;;;;4.05;100.00;99768.84;5069363;28;20048;-77
2024/01/02 04:15:18;;;;;;;67.07;40.58;;;;;;;3.92;100.00;99780.84;5068727;28;20036;-78
2024/01/02 04:17:43;;;;;;;67.38;40.08;;;;;;;4.23;100.00;99814.16;5068275;28;20025;-77
2024/01/02 04:20:09;;;;;;;226.30;116.40;;;;;;;3.99;100.00;99796.78;5069312;28;20044;-78
2024/01/02 04:22:34;;;;;;;97.25;52.25;;;;;;;4.07;100.00;99787.97;5069010;28;20064;-77
2024/01/02 04:25:00;;;;;;;121.38;65.57;;;;;;;4.12;100.00;99793.50;5069516;28;20036;-78
2024/01/02 04:27:25;;;;;;;134.05;70.65;;;;;;;4.20;100.00;99796.03;5069613;28;20625;-78
2024/01/02 04:29:51;;;;;;;201.98;105.50;;;;;;;4.35;100.00;99812.69;5069572;28;20043;-78
2024/01/02 04:32:16;;;;;;;98.10;55.03;;;;;;;4.59;100.00;99798.31;5068999;28;20068;-77
2024/01/02 04:34:42;;;;;;;61.67;34.80;;;;;;;4.67;100.00;99805.31;5068811;28;20039;-77
2024/01/02 04:37:07;;;;;;;53.53;31.80;;;;;;;4.47;100.00;99793.72;5069284;28;20029;-77
2024/01/02 04:39:33;;;;;;;58.20;33.92;;;;;;;4.38;100.00;99793.00;5068796;28;20472;-77
2024/01/02 04:41:59;;;;;;;55.08;32.20;;;;;;;4.31;100.00;99777.09;5068285;28;20412;-80
2024/01/02 04:44:24;;;;;;;55.30;33.30;;;;;;;4.23;100.00;99782.50;5068657;28;20436;-78
2024/01/02 04:46:50;;;;;;;59.15;38.22;;;;;;;4.50;100.00;99809.19;5051203;28;20500;-77
2024/01/02 04:49:15;;;;;;;73.70;43.72;;;;;;;4.70;100.00;99807.59;5068578;28;20020;-78
2024/01/02 04:51:41;;;;;;;69.05;43.90;;;;;;;4.50;100.00;99777.50;5068621;28;20020;-77
2024/01/02 04:54:07;;;;;;;68.60;41.63;;;;;;;4.79;100.00;99811.75;5068821;28;20044;-77
2024/01/02 04:56:33;;;;;;;67.38;36.88;;;;;;;4.97;100.00;99829.00;5067371;28;20024;-77
2024/01/02 04:58:58;;;;;;;63.70;39.15;;;;;;;4.41;100.00;99795.28;5068473;28;20025;-77
2024/01/02 05:01:24;;;;;;;66.63;42.60;;;;;;;4.71;100.00;99811.88;5056974;28;20040;-77
2024/01/02 05:03:49;;;;;;;57.28;36.42;;;;;;;4.85;100.00;99823.41;5068517;28;20040;-78
2024/01/02 05:06:14;;;;;;;56.00;35.42;;;;;;;4.78;100.00;99828.63;5050854;28;20028;-78
2024/01/02 05:08:40;;;;;;;57.03;37.10;;;;;;;4.80;100.00;99802.84;5068661;28;20101;-78
2024/01/02 05:11:05;;;;;;;63.90;40.97;;;;;;;4.77;100.00;99812.94;5068283;28;20027;-77
2024/01/02 05:13:31;;;;;;;65.95;41.78;;;;;;;5.09;100.00;99840.72;5068148;28;20107;-77
2024/01/02 05:15:56;;;;;;;58.78;36.55;;;;;;;4.92;100.00;99810.25;5068855;28;20032;-79
2024/01/02 05:18:21;;;;;;;63.85;37.85;;;;;;;4.94;100.00;99824.91;5067245;28;20592;-78
2024/01/02 05:20:47;;;;;;;58.95;37.75;;;;;;;5.17;100.00;99848.53;5064877;28;20037;-78
2024/01/02 05:23:13;;;;;;;63.63;36.58;;;;;;;5.15;100.00;99837.31;5049966;28;20925;-78
2024/01/02 05:25:38;;;;;;;56.47;35.03;;;;;;;4.88;100.00;99816.91;5068100;28;20445;-77
2024/01/02 05:28:04;;;;;;;57.13;35.75;;;;;;;4.64;100.00;99826.84;5068056;28;20111;-78
2024/01/02 05:30:29;;;;;;;62.38;36.78;;;;;;;4.66;100.00;99826.63;5068670;28;20137;-76
2024/01/02 05:32:55;;;;;;;60.70;37.60;;;;;;;4.80;100.00;99836.34;5067690;28;20421;-78
2024/01/02 05:35:20;;;;;;;59.67;36.17;;;;;;;4.60;100.00;99830.84;5067368;28;20086;-77
2024/01/02 05:37:46;;;;;;;62.38;37.33;;;;;;;4.26;100.00;99812.97;5066914;28;20397;-78
2024/01/02 05:40:11;;;;;;;66.90;38.40;;;;;;;4.49;100.00;99828.69;5066506;28;20055;-78
2024/01/02 05:42:37;;;;;;;64.28;37.63;;;;;;;4.37;100.00;99784.28;5067827;28;20456;-78
2024/01/02 05:45:03;;;;;;;60.55;37.50;;;;;;;4.48;100.00;99798.00;5068058;28;20028;-79
2024/01/02 05:47:28;;;;;;;62.65;37.22;;;;;;;4.69;100.00;99816.50;5068101;28;20032;-78
2024/01/02 05:49:54;;;;;;;59.70;36.55;;;;;;;4.50;100.00;99835.59;5067782;28;20033;-78
2024/01/02 05:52:19;;;;;;;65.13;40.92;;;;;;;4.54;100.00;99815.75;5067325;28;20036;-78
2024/01/02 05:54:45;;;;;;;58.45;36.58;;;;;;;4.77;100.00;99813.75;5067885;28;20032;-79
2024/01/02 05:57:13;;;;;;;61.60;38.35;;;;;;;4.78;100.00;99839.19;5067388;28;20519;-79
2024/01/02 05:59:39;;;;;;;88.75;49.83;;;;;;;4.65;100.00;99833.75;5049749;28;20063;-79
2024/01/02 06:02:04;;;;;;;95.57;51.55;;;;;;;4.69;100.00;99819.16;5049211;28;20028;-78
2024/01/02 06:04:30;;;;;;;73.60;45.10;;;;;;;5.07;100.00;99848.03;5067583;28;20177;-79
2024/01/02 06:06:55;;;;;;;65.30;38.85;;;;;;;5.00;100.00;99847.13;5066374;28;20038;-79
2024/01/02 06:09:21;;;;;;;73.72;40.90;;;;;;;5.07;100.00;99820.75;5068250;28;20071;-78
2024/01/02 06:11:46;;;;;;;74.90;44.67;;;;;;;5.24;100.00;99848.59;5067898;28;20048;-79
2024/01/02 06:14:11;;;;;;;77.30;44.90;;;;;;;5.49;100.00;99856.94;5053477;28;20058;-77
2024/01/02 06:16:38;;;;;;;66.38;41.90;;;;;;;5.44;100.00;99854.06;5072296;28;20033;-77
2024/01/02 06:19:04;;;;;;;63.53;38.03;;;;;;;5.24;100.00;99875.84;5053359;28;20025;-78
2024/01/02 06:21:29;;;;;;;58.28;37.70;;;;;;;4.94;100.00;99867.19;5071504;28;20032;-77
2024/01/02 06:23:58;;;;;;;65.85;37.10;;;;;;;5.21;100.00;99870.09;5071129;28;20393;-77
2024/01/02 06:26:23;;;;;;;60.22;38.50;;;;;;;5.11;100.00;99853.72;5071299;28;20508;-77
2024/01/02 06:28:49;;;;;;;65.90;40.10;;;;;;;4.97;100.00;99848.31;5053451;28;20181;-77
2024/01/02 06:31:15;;;;;;;68.22;40.95;;;;;;;5.24;100.00;99859.97;5071211;28;20393;-77
2024/01/02 06:33:44;;;;;;;61.47;37.30;;;;;;;5.34;100.00;99859.66;5070776;28;20032;-77
2024/01/02 06:36:12;;;;;;;60.45;37.47;;;;;;;5.62;100.00;99886.16;5071057;28;20026;-78
2024/01/02 06:38:38;;;;;;;61.60;37.38;;;;;;;5.60;100.00;99874.94;5053185;28;20036;-77
2024/01/02 06:41:04;;;;;;;90.10;51.05;;;;;;;5.68;100.00;99886.38;5053533;28;20025;-78
2024/01/02 06:43:29;;;;;;;58.17;35.80;;;;;;;5.44;100.00;99844.28;5070695;28;20029;-77
2024/01/02 06:45:55;;;;;;;58.13;36.45;;;;;;;5.65;100.00;99853.19;5071483;28;20508;-77
2024/01/02 06:48:20;;;;;;;56.33;34.90;;;;;;;5.78;100.00;99860.41;5071550;28;20520;-77
2024/01/02 06:50:45;;;;;;;58.35;34.67;;;;;;;5.57;100.00;99853.34;5053288;28;20021;-78
2024/01/02 06:53:11;;;;;;;58.92;36.63;;;;;;;5.55;100.00;99850.06;5069705;28;20039;-78
2024/01/02 06:55:36;;;;;;;50.58;32.70;;;;;;;5.52;100.00;99847.81;5070577;28;20306;-78
2024/01/02 06:58:02;;;;;;;53.75;33.33;;;;;;;5.67;100.00;99874.19;5052141;28;20107;-78
2024/01/02 07:00:28;;;;;;;58.05;34.33;;;;;;;5.71;100.00;99891.31;5070676;28;20051;-79
2024/01/02 07:02:53;;;;;;;75.95;51.05;;;;;;;5.55;100.00;99906.44;5069527;28;20050;-78
2024/01/02 07:05:19;;;;;;;63.95;45.05;;;;;;;5.52;100.00;99877.72;5051153;28;20043;-78
2024/01/02 07:07:44;;;;;;;56.45;37.78;;;;;;;5.26;100.00;99888.06;5069993;28;20111;-79
2024/01/02 07:10:09;;;;;;;51.80;36.67;;;;;;;5.30;100.00;99905.19;5069852;28;20707;-78
2024/01/02 07:12:35;;;;;;;51.97;33.10;;;;;;;5.19;100.00;99872.09;5069962;28;20072;-77
2024/01/02 07:15:00;;;;;;;54.17;34.50;;;;;;;5.44;100.00;99906.94;5070037;28;20417;-77
2024/01/02 07:17:26;;;;;;;52.22;33.13;;;;;;;5.42;100.00;99903.69;5070368;28;20035;-77
2024/01/02 07:19:51;;;;;;;48.13;31.10;;;;;;;5.37;100.00;99885.75;5069529;28;20120;-78
2024/01/02 07:22:17;;;;;;;50.00;32.03;;;;;;;5.31;100.00;99875.06;5056198;28;20027;-78
2024/01/02 07:24:44;;;;;;;58.83;35.22;;;;;;;5.45;100.00;99900.63;5068427;28;20033;-77
2024/01/02 07:27:09;;;;;;;51.75;33.38;;;;;;;5.18;100.00;99896.94;5069751;28;20668;-78
2024/01/02 07:29:35;;;;;;;54.10;33.95;;;;;;;5.32;100.00;99882.81;5069939;28;20028;-77
2024/01/02 07:32:00;;;;;;;57.72;34.55;;;;;;;5.12;100.00;99879.97;5070221;28;20097;-78
2024/01/02 07:34:26;;;;;;;60.15;34.80;;;;;;;5.36;100.00;99878.81;5069462;28;20362;-77
2024/01/02 07:36:51;;;;;;;59.00;36.95;;;;;;;5.54;100.00;99866.97;5069626;28;20028;-78
2024/01/02 07:39:17;;;;;;;59.42;38.35;;;;;;;5.74;100.00;99882.97;5069485;28;20070;-78
2024/01/02 07:41:42;;;;;;;55.47;35.40;;;;;;;5.50;100.00;99885.03;5069273;28;20496;-78
2024/01/02 07:44:07;;;;;;;61.08;37.95;;;;;;;5.45;100.00;99871.53;5051129;28;20120;-78
2024/01/02 07:46:33;;;;;;;54.90;35.97;;;;;;;5.27;100.00;99863.25;5050885;28;20040;-77
2024/01/02 07:48:58;;;;;;;57.42;37.28;;;;;;;5.46;100.00;99867.91;5069695;28;20024;-76
2024/01/02 07:51:24;;;;;;;62.55;39.90;;;;;;;5.56;100.00;99857.00;5051697;28;20110;-77
2024/01/02 07:53:49;;;;;;;58.35;36.95;;;;;;;5.29;100.00;99824.22;5051391;28;20028;-78
2024/01/02 07:56:19;;;;;;;52.78;34.10;;;;;;;5.75;100.00;99866.09;5069186;28;20086;-78
2024/01/02 07:58:46;;;;;;;52.42;32.97;;;;;;;6.14;100.00;99888.59;5069044;28;20029;-77
2024/01/02 08:01:12;;;;;;;70.47;40.40;;;;;;;6.21;100.00;99898.22;5068909;28;20039;-78
2024/01/02 08:03:37;;;;;;;76.93;45.15;;;;;;;6.33;100.00;99889.72;5068005;28;20029;-79
2024/01/02 08:06:03;;;;;;;85.22;50.90;;;;;;;6.52;100.00;99893.47;5050202;28;20131;-77
2024/01/02 08:08:29;;;;;;;60.38;37.95;;;;;;;6.21;100.00;99887.63;5067689;28;20059;-77
2024/01/02 08:10:54;;;;;;;56.80;36.13;;;;;;;6.27;100.00;99907.19;5067821;28;20035;-78
2024/01/02 08:13:20;;;;;;;58.60;35.92;;;;;;;6.24;100.00;99881.13;5079709;28;20059;-78
2024/01/02 08:15:45;;;;;;;55.78;36.85;;;;;;;6.51;100.00;99892.66;5067660;28;20552;-77
2024/01/02 08:18:10;;;;;;;61.33;38.67;;;;;;;6.63;100.00;99903.53;5049601;28;20040;-78
2024/01/02 08:20:36;;;;;;;59.65;38.45;;;;;;;6.69;100.00;99892.13;5049826;28;20025;-77
2024/01/02 08:23:01;;;;;;;56.78;36.47;;;;;;;6.78;100.00;99908.69;5049201;28;20024;-78
2024/01/02 08:25:26;;;;;;;59.70;38.83;;;;;;;6.93;100.00;99900.59;5067321;28;20029;-77
2024/01/02 08:27:52;;;;;;;106.88;47.17;;;;;;;6.96;100.00;99906.28;5067442;28;20032;-78
2024/01/02 08:30:18;;;;;;;85.80;44.97;;;;;;;6.79;100.00;99879.34;5067323;28;20029;-78
2024/01/02 08:32:44;;;;;;;83.93;44.10;;;;;;;7.20;100.00;99904.94;5068527;28;20082;-77
2024/01/02 08:35:10;;;;;;;90.55;49.28;;;;;;;7.35;100.00;99903.94;5068168;28;20029;-77
2024/01/02 08:37:35;;;;;;;84.47;49.78;;;;;;;7.57;100.00;99923.97;5068677;28;20025;-78
2024/01/02 08:40:00;;;;;;;64.15;40.80;;;;;;;7.62;100.00;99928.69;5068757;28;20115;-79
2024/01/02 08:42:26;;;;;;;61.03;39.40;;;;;;;7.73;100.00;99922.78;5050906;28;20029;-77
2024/01/02 08:44:51;;;;;;;53.20;36.50;;;;;;;7.83;100.00;99917.88;5068092;28;20012;-77
2024/01/02 08:47:17;;;;;;;58.97;39.30;;;;;;;8.05;100.00;99929.13;5068532;28;20112;-78
2024/01/02 08:49:42;;;;;;;51.60;34.35;;;;;;;8.26;100.00;99943.19;5050737;28;20027;-77
2024/01/02 08:52:07;;;;;;;52.75;33.70;;;;;;;8.13;100.00;99937.88;5068461;28;20059;-78
2024/01/02 08:54:33;;;;;;;55.30;36.10;;;;;;;8.07;100.00;99920.09;5050479;28;20504;-77
2024/01/02 08:56:59;;;;;;;53.92;34.78;;;;;;;8.09;100.00;99920.72;5068620;28;20036;-78
2024/01/02 08:59:24;;;;;;;52.15;33.90;;;;;;;8.13;100.00;99921.94;5069064;28;20028;-78
2024/01/02 09:01:51;;;;;;;54.53;35.42;;;;;;;8.34;100.00;99947.47;5070179;28;20024;-77
2024/01/02 09:04:17;;;;;;;50.75;35.83;;;;;;;8.23;100.00;99941.78;5069004;28;20032;-78
2024/01/02 09:06:42;;;;;;;51.70;34.55;;;;;;;8.52;100.00;99947.69;5067246;28;20032;-78
2024/01/02 09:09:08;;;;;;;50.15;33.75;;;;;;;8.54;100.00;99953.59;5068838;28;20091;-78
2024/01/02 09:11:34;;;;;;;49.92;33.90;;;;;;;8.25;100.00;99925.59;5069061;28;20681;-78
2024/01/02 09:14:00;;;;;;;54.92;34.63;;;;;;;8.28;100.00;99930.50;5059390;28;20032;-78
2024/01/02 09:16:31;;;;;;;48.60;33.67;;;;;;;8.26;100.00;99927.25;5082696;28;20044;-79
2024/01/02 09:18:57;;;;;;;53.92;37.72;;;;;;;8.59;100.00;99953.78;5083116;28;20025;-78
2024/01/02 09:21:22;;;;;;;59.72;38.30;;;;;;;8.51;100.00;99947.88;5061045;28;20028;-78
2024/01/02 09:23:47;;;;;;;56.95;38.55;;;;;;;8.60;100.00;99933.31;5079181;28;20025;-77
2024/01/02 09:26:16;;;;;;;55.25;36.05;;;;;;;8.71;100.00;99950.47;5078355;28;20032;-78
2024/01/02 09:28:43;;;;;;;53.67;35.97;;;;;;;8.26;100.00;99919.28;5078488;28;20020;-78
2024/01/02 09:31:08;;;;;;;61.33;38.60;;;;;;;8.56;100.00;99937.41;5078780;28;20028;-78
2024/01/02 09:33:34;;;;;;;59.38;37.90;;;;;;;8.84;100.00;99948.56;5078535;28;20035;-78
2024/01/02 09:35:59;;;;;;;51.38;34.95;;;;;;;8.72;100.00;99915.69;5074256;28;20037;-78
2024/01/02 09:38:25;;;;;;;54.45;36.00;;;;;;;8.90;100.00;99938.13;5063456;28;20032;-78
2024/01/02 09:41:21;;;;;;;51.97;37.70;;;;;;;9.15;100.00;99957.66;5074556;28;20024;-78
2024/01/02 09:43:52;;;;;;;58.90;39.78;;;;;;;8.90;100.00;99959.41;5074203;28;20121;-78
2024/01/02 09:46:38;;;;;;;85.88;43.85;;;;;;;9.01;100.00;99946.28;5073579;28;20081;-78
2024/01/02 09:49:06;;;;;;;60.80;38.13;;;;;;;9.16;100.00;99963.81;5074326;28;20024;-77
2024/01/02 09:52:00;;;;;;;51.42;32.85;;;;;;;9.19;100.00;99964.22;5074525;28;20078;-77
2024/01/02 09:54:39;;;;;;;44.53;30.35;;;;;;;9.24;100.00;99960.91;5054813;28;20114;-77
2024/01/02 09:57:14;;;;;;;49.70;31.80;;;;;;;9.33;100.00;99954.28;5072547;28;20112;-77
2024/01/02 09:59:39;;;;;;;49.85;31.85;;;;;;;9.41;100.00;99953.22;5070809;28;20035;-77
2024/01/02 10:02:17;;;;;;;51.15;32.75;;;;;;;9.44;100.00;99961.63;5069404;28;20029;-77
2024/01/02 10:04:49;;;;;;;47.10;30.40;;;;;;;9.41;100.00;99942.59;5069518;28;20536;-77
2024/01/02 10:07:26;;;;;;;47.15;30.92;;;;;;;9.53;100.00;99961.34;5068699;28;20025;-77
2024/01/02 10:10:11;;;;;;;48.03;31.80;;;;;;;9.63;100.00;99949.19;5069095;28;20404;-77
2024/01/02 10:13:06;;;;;;;50.97;32.28;;;;;;;9.69;100.00;99963.50;5080001;28;20051;-77
2024/01/02 10:15:42;;;;;;;47.70;32.90;;;;;;;9.59;100.00;99955.97;5055234;28;20048;-77
2024/01/02 10:18:10;;;;;;;48.53;31.52;;;;;;;9.67;100.00;99951.44;5071494;28;20036;-77
2024/01/02 10:20:53;;;;;;;48.80;34.00;;;;;;;9.54;100.00;99955.00;5088308;28;20024;-78
2024/01/02 10:23:53;;;;;;;51.20;32.78;;;;;;;9.63;100.00;99962.50;5087788;28;20622;-77
2024/01/02 10:26:19;;;;;;;66.78;39.15;;;;;;;9.58;100.00;99966.84;5074153;28;20036;-77
2024/01/02 10:28:49;;;;;;;93.55;48.15;;;;;;;9.54;100.00;99950.50;5065483;28;20394;-77
2024/01/02 10:31:27;;;;;;;82.80;42.75;;;;;;;9.43;100.00;99951.16;5054096;28;20776;-78
2024/01/02 10:34:10;;;;;;;63.80;38.08;;;;;;;9.21;100.00;99938.22;5055483;28;20838;-78
2024/01/02 10:36:45;;;;;;;50.50;33.78;;;;;;;9.14;100.00;99934.75;5067139;28;20547;-78
2024/01/02 10:39:48;;;;;;;53.78;35.58;;;;;;;9.25;100.00;99957.19;5048908;28;20040;-77
2024/01/02 10:42:36;;;;;;;50.72;33.92;;;;;;;9.34;100.00;99955.94;5058228;28;20073;-78
2024/01/02 10:45:19;;;;;;;51.20;33.38;;;;;;;9.27;100.00;99927.72;5067025;28;20065;-79
2024/01/02 10:48:03;;;;;;;55.70;38.10;;;;;;;9.36;100.00;99937.91;5064539;28;20538;-79
2024/01/02 10:50:52;;;;;;;46.90;33.42;;;;;;;9.08;100.00;99903.69;5066643;28;20123;-79
2024/01/02 10:53:32;;;;;;;49.00;33.17;;;;;;;9.43;100.00;99927.22;5066730;28;20086;-78
2024/01/02 10:56:34;;;;;;;48.65;32.30;;;;;;;9.38;100.00;99935.03;5066908;28;20021;-77
2024/01/02 10:59:30;;;;;;;52.20;34.03;;;;;;;9.51;100.00;99934.94;5068590;28;20035;-78
2024/01/02 11:02:03;;;;;;;50.25;34.00;;;;;;;9.39;100.00;99916.19;5070414;28;20031;-78
2024/01/02 11:04:43;;;;;;;54.40;37.45;;;;;;;9.83;100.00;99929.59;5070022;28;20028;-80
2024/01/02 11:07:10;;;;;;;55.40;37.80;;;;;;;9.80;100.00;99935.34;5067283;28;20033;-78
2024/01/02 11:10:09;;;;;;;60.75;37.60;;;;;;;9.64;100.00;99929.53;5070045;28;20039;-78
2024/01/02 11:12:54;;;;;;;53.22;36.20;;;;;;;9.56;100.00;99908.50;5064519;28;20101;-78
2024/01/02 11:15:22;;;;;;;59.80;38.45;;;;;;;9.68;100.00;99907.78;5070722;28;20025;-77
2024/01/02 11:17:54;;;;;;;52.90;36.95;;;;;;;9.64;100.00;99918.91;5045105;28;20047;-77